Time;durP1;ratioP1;P1;durP2;ratioP2;P2;SDS_P1;SDS_P2;PMS_P1;PMS_P2;Temp;Humidity;BMP_temperature;BMP_pressure;BME280_temperature;BME280_humidity;BME280_pressure;Samples;Min_cycle;Max_cycle;Signal;HPM_P1;HPM_P2
2021/04/02 00:01:03;;;;;;;7.70;3.85;;;;;;;11.60;73.26;95390.22;5028926;28;20096;-66
2021/04/02 00:03:33;;;;;;;7.93;4.22;;;;;;;11.47;73.50;95388.44;5028331;28;20095;-66
2021/04/02 00:05:59;;;;;;;7.70;4.00;;;;;;;11.04;75.53;95375.53;5028428;28;20447;-66
2021/04/02 00:08:25;;;;;;;6.88;4.28;;;;;;;11.57;73.52;95383.63;5027024;28;20061;-66
2021/04/02 00:10:55;;;;;;;8.00;4.25;;;;;;;11.39;74.32;95368.63;5028612;28;20060;-66
2021/04/02 00:13:23;;;;;;;4.82;3.88;;;;;;;11.23;74.00;95333.56;5030231;28;20555;-66
2021/04/02 00:15:49;;;;;;;9.07;4.20;;;;;;;11.60;73.74;95379.56;5028311;28;20037;-65
2021/04/02 00:18:16;;;;;;;8.88;4.57;;;;;;;11.36;74.36;95369.22;5026669;28;20049;-65
2021/04/02 00:20:42;;;;;;;9.15;4.55;;;;;;;10.59;74.33;95253.88;5028151;28;20120;-67
2021/04/02 00:23:08;;;;;;;8.05;4.18;;;;;;;11.42;73.85;95370.69;5027840;28;20033;-66
2021/04/02 00:25:37;;;;;;;9.95;4.72;;;;;;;11.10;75.23;95358.38;5030183;28;20030;-66
2021/04/02 00:28:04;;;;;;;7.82;4.85;;;;;;;10.80;75.14;95315.41;5030451;28;20030;-64
2021/04/02 00:30:37;;;;;;;7.78;4.93;;;;;;;11.30;74.57;95386.41;5032037;28;20049;-66
2021/04/02 00:33:03;;;;;;;7.45;4.13;;;;;;;10.88;75.48;95332.53;5031899;28;20064;-66
2021/04/02 00:35:29;;;;;;;8.85;4.13;;;;;;;11.19;73.94;95356.56;5031837;28;20034;-66
2021/04/02 00:37:54;;;;;;;7.68;4.07;;;;;;;11.12;74.82;95367.63;5031842;28;20491;-66
2021/04/02 00:40:24;;;;;;;7.13;4.30;;;;;;;11.05;74.90;95337.97;5033937;28;20094;-66
2021/04/02 00:42:49;;;;;;;7.38;4.38;;;;;;;11.07;73.03;95330.50;5031562;28;20033;-65
2021/04/02 00:45:17;;;;;;;7.57;4.45;;;;;;;11.03;75.02;95373.97;5031661;28;20506;-66
2021/04/02 00:47:43;;;;;;;5.30;4.13;;;;;;;10.99;75.76;95367.66;5030072;28;20507;-67
2021/04/02 00:50:16;;;;;;;7.47;4.60;;;;;;;10.80;74.69;95309.28;5031579;28;20041;-67
2021/04/02 00:52:41;;;;;;;11.95;5.40;;;;;;;10.80;74.91;95343.88;5033255;28;20075;-65
2021/04/02 00:55:07;;;;;;;11.85;4.85;;;;;;;10.87;75.60;95354.91;5030333;28;20172;-65
2021/04/02 00:57:33;;;;;;;9.13;5.65;;;;;;;10.91;76.08;95383.28;5045127;28;20499;-66
2021/04/02 00:59:59;;;;;;;12.55;6.25;;;;;;;10.87;75.51;95346.91;5031478;28;20053;-66
2021/04/02 01:02:26;;;;;;;8.80;5.13;;;;;;;11.16;75.01;95375.81;5029863;28;20050;-66
2021/04/02 01:04:51;;;;;;;10.73;6.13;;;;;;;10.63;76.77;95341.84;5031421;28;20033;-65
2021/04/02 01:07:17;;;;;;;9.05;5.03;;;;;;;10.60;76.44;95350.44;5033088;28;20022;-65
2021/04/02 01:09:43;;;;;;;10.98;5.60;;;;;;;10.48;76.16;95305.72;5030161;28;20033;-67
2021/04/02 01:12:08;;;;;;;9.07;5.00;;;;;;;10.81;76.01;95364.88;5031166;28;20065;-66
2021/04/02 01:14:34;;;;;;;13.13;5.50;;;;;;;10.69;76.42;95359.25;5031272;28;20072;-67
2021/04/02 01:16:59;;;;;;;7.47;5.25;;;;;;;10.16;77.03;95303.97;5030992;28;20030;-65
2021/04/02 01:19:52;;;;;;;9.00;5.15;;;;;;;10.76;76.13;95377.50;5033159;28;20021;-66
2021/04/02 01:22:22;;;;;;;10.05;5.85;;;;;;;10.29;77.48;95342.28;5030946;28;20441;-64
2021/04/02 01:25:05;;;;;;;13.32;6.13;;;;;;;10.49;76.35;95347.16;5029587;28;20057;-66
2021/04/02 01:27:31;;;;;;;;;;;;;;;10.66;75.84;95373.97;5031231;28;20041;-64
2021/04/02 01:30:02;;;;;;;11.25;6.55;;;;;;;10.16;76.07;95285.34;5029653;28;19917;-65
2021/04/02 01:32:36;;;;;;;9.30;6.65;;;;;;;10.76;75.79;95374.84;5030666;28;20037;-66
2021/04/02 01:35:10;;;;;;;9.23;6.40;;;;;;;10.84;74.71;95382.09;5030908;28;20045;-66
2021/04/02 01:37:41;;;;;;;12.93;6.70;;;;;;;10.58;75.88;95381.84;5032482;28;20029;-64
2021/04/02 01:40:09;;;;;;;14.68;6.95;;;;;;;10.71;75.40;95375.72;5030862;28;20116;-66
2021/04/02 01:42:38;;;;;;;9.25;6.97;;;;;;;10.15;76.33;95331.63;5030403;28;20117;-65
2021/04/02 01:45:09;;;;;;;14.43;7.53;;;;;;;9.97;76.82;95335.16;5029341;28;20117;-64
2021/04/02 01:47:35;;;;;;;10.82;6.20;;;;;;;10.03;77.39;95358.72;5030452;28;20033;-65
2021/04/02 01:50:01;;;;;;;12.45;7.45;;;;;;;10.18;77.38;95384.19;5030533;28;20033;-65
2021/04/02 01:52:29;;;;;;;12.23;6.93;;;;;;;10.26;77.45;95396.84;5032155;28;20030;-65
2021/04/02 01:54:55;;;;;;;10.85;7.28;;;;;;;9.88;77.30;95335.88;5030632;28;20060;-65
2021/04/02 01:57:22;;;;;;;12.02;7.68;;;;;;;9.63;77.27;95307.88;5030209;28;20555;-65
2021/04/02 01:59:48;;;;;;;11.15;7.05;;;;;;;9.77;76.66;95329.13;5029010;28;20492;-65
2021/04/02 02:02:16;;;;;;;14.30;8.10;;;;;;;9.85;77.05;95347.06;5028926;28;20033;-66
2021/04/02 02:04:43;;;;;;;13.00;7.88;;;;;;;10.39;75.47;95390.75;5032376;28;20025;-66
2021/04/02 02:07:09;;;;;;;11.23;8.00;;;;;;;10.07;75.52;95329.66;5030192;28;20116;-65
2021/04/02 02:09:38;;;;;;;14.98;9.18;;;;;;;10.38;75.03;95393.69;5030790;28;20778;-66
2021/04/02 02:12:08;;;;;;;17.98;9.55;;;;;;;10.35;76.23;95400.38;5030105;28;20038;-66
2021/04/02 02:14:35;;;;;;;14.73;9.20;;;;;;;9.74;74.61;95281.13;5028930;28;20029;-66
2021/04/02 02:17:04;;;;;;;15.88;10.48;;;;;;;10.34;75.55;95398.03;5029873;28;20052;-66
2021/04/02 02:19:33;;;;;;;17.05;10.05;;;;;;;9.38;75.28;95256.03;5031959;28;20025;-65
2021/04/02 02:22:02;;;;;;;21.98;11.27;;;;;;;10.12;76.41;95401.31;5028566;28;20056;-65
2021/04/02 02:24:28;;;;;;;17.27;11.07;;;;;;;9.70;75.25;95299.53;5030232;28;20049;-66
2021/04/02 02:26:55;;;;;;;17.58;11.13;;;;;;;10.11;74.83;95355.34;5030105;28;20163;-65
2021/04/02 02:29:20;;;;;;;19.48;9.63;;;;;;;9.85;74.73;95319.72;5029924;28;20483;-65
2021/04/02 02:31:46;;;;;;;26.60;11.48;;;;;;;9.82;74.81;95317.63;5029973;28;20036;-65
2021/04/02 02:34:11;;;;;;;19.27;11.77;;;;;;;10.09;74.59;95380.66;5032006;28;20016;-65
2021/04/02 02:36:37;;;;;;;20.13;11.07;;;;;;;10.06;75.38;95386.56;5045277;28;20072;-65
2021/04/02 02:39:11;;;;;;;20.48;10.55;;;;;;;10.05;76.13;95408.91;5028392;28;20025;-66
2021/04/02 02:41:37;;;;;;;20.98;11.48;;;;;;;9.58;77.05;95369.06;5028296;28;20053;-65
2021/04/02 02:44:03;;;;;;;22.50;10.98;;;;;;;9.80;76.35;95387.00;5029956;28;20021;-65
2021/04/02 02:46:28;;;;;;;21.45;11.23;;;;;;;9.81;77.12;95409.03;5030077;28;20625;-66
2021/04/02 02:48:59;;;;;;;16.20;10.48;;;;;;;9.85;77.06;95407.38;5043580;28;20049;-65
2021/04/02 02:51:29;;;;;;;20.20;10.68;;;;;;;9.37;77.27;95375.78;5026645;28;20057;-65
2021/04/02 02:53:58;;;;;;;24.50;11.43;;;;;;;9.29;77.48;95329.44;5028100;28;20033;-65
2021/04/02 02:56:25;;;;;;;16.40;10.70;;;;;;;9.77;76.89;95384.13;5029443;28;20041;-64
2021/04/02 02:58:52;;;;;;;23.30;12.85;;;;;;;9.33;76.45;95319.81;5029283;28;20367;-65
2021/04/02 03:01:18;;;;;;;23.05;13.85;;;;;;;9.04;76.87;95290.81;5031097;28;20057;-64
2021/04/02 03:03:45;;;;;;;22.45;12.00;;;;;;;9.72;76.62;95408.91;5029114;28;20046;-64
2021/04/02 03:06:12;;;;;;;25.27;11.90;;;;;;;8.88;77.15;95288.72;5044532;28;20038;-64
2021/04/02 03:08:46;;;;;;;24.60;12.30;;;;;;;9.32;77.08;95351.97;5029025;28;20053;-64
2021/04/02 03:11:16;;;;;;;27.48;12.30;;;;;;;9.52;77.14;95378.19;5029040;28;20037;-66
2021/04/02 03:13:42;;;;;;;27.08;12.82;;;;;;;9.22;77.56;95341.53;5031031;28;20029;-65
2021/04/02 03:16:10;;;;;;;21.73;12.57;;;;;;;9.38;77.54;95361.44;5027738;28;20052;-66
2021/04/02 03:18:37;;;;;;;24.83;13.48;;;;;;;9.58;77.42;95394.84;5028882;28;20036;-65
2021/04/02 03:21:03;;;;;;;26.05;13.65;;;;;;;9.41;77.09;95386.59;5027547;28;20034;-65
2021/04/02 03:23:30;;;;;;;21.13;13.20;;;;;;;9.14;77.68;95361.53;5028600;28;20384;-64
2021/04/02 03:25:56;;;;;;;22.00;13.57;;;;;;;8.98;78.07;95341.63;5028564;28;20499;-65
2021/04/02 03:28:22;;;;;;;26.33;13.02;;;;;;;9.29;78.57;95402.97;5030624;28;20037;-65
2021/04/02 03:30:48;;;;;;;30.92;13.48;;;;;;;8.48;80.58;95346.53;5028533;28;20124;-65
2021/04/02 03:33:27;;;;;;;24.75;13.00;;;;;;;9.01;79.58;95394.13;5028723;28;20430;-65
2021/04/02 03:36:00;;;;;;;21.23;13.52;;;;;;;8.81;78.84;95366.00;5028589;28;20103;-65
2021/04/02 03:38:31;;;;;;;23.38;13.88;;;;;;;8.54;78.38;95310.94;5028753;28;20025;-65
2021/04/02 03:40:59;;;;;;;23.48;13.57;;;;;;;8.91;78.34;95373.81;5028884;28;20033;-67
2021/04/02 03:43:25;;;;;;;27.00;15.07;;;;;;;9.01;77.81;95371.03;5030344;28;20033;-66
2021/04/02 03:45:52;;;;;;;27.90;15.85;;;;;;;9.24;77.88;95418.97;5028642;28;20045;-65
2021/04/02 03:48:19;;;;;;;37.42;15.77;;;;;;;8.78;78.25;95359.41;5028339;28;20025;-65
2021/04/02 03:50:51;;;;;;;28.90;15.18;;;;;;;9.21;77.40;95403.63;5028522;28;20034;-65
2021/04/02 03:53:30;;;;;;;;;;;;;;;9.28;77.40;95417.34;5028464;28;20045;-63
2021/04/02 03:55:58;;;;;;;25.88;14.10;;;;;;;8.98;76.47;95365.50;5028287;28;19955;-66
2021/04/02 03:58:25;;;;;;;34.72;18.00;;;;;;;8.89;76.41;95351.28;5028974;28;20048;-65
2021/04/02 04:01:08;;;;;;;36.35;17.63;;;;;;;9.14;76.45;95397.91;5028308;28;20522;-66
2021/04/02 04:03:36;;;;;;;32.38;17.70;;;;;;;9.04;76.42;95374.94;5027702;28;20475;-64
2021/04/02 04:06:03;;;;;;;29.77;16.40;;;;;;;8.80;76.65;95372.34;5043655;28;20069;-65
2021/04/02 04:08:31;;;;;;;34.22;18.55;;;;;;;9.08;76.64;95405.16;5028050;28;20029;-65
2021/04/02 04:10:58;;;;;;;37.35;17.67;;;;;;;9.17;76.80;95434.50;5028256;28;20100;-65
2021/04/02 04:13:25;;;;;;;39.40;18.70;;;;;;;9.03;78.23;95445.03;5030205;28;20426;-66
2021/04/02 04:15:54;;;;;;;36.95;18.48;;;;;;;9.00;77.55;95406.56;5028112;28;20116;-65
2021/04/02 04:18:21;;;;;;;36.65;19.20;;;;;;;8.58;77.21;95343.75;5027903;28;20030;-66
2021/04/02 04:20:49;;;;;;;34.83;19.65;;;;;;;8.59;77.88;95362.03;5028158;28;20040;-66
2021/04/02 04:23:15;;;;;;;37.22;19.27;;;;;;;8.96;78.17;95434.78;5028106;28;20568;-66
2021/04/02 04:25:40;;;;;;;40.70;18.92;;;;;;;8.74;79.45;95437.16;5030218;28;20072;-65
2021/04/02 04:28:10;;;;;;;40.38;18.83;;;;;;;8.88;78.95;95440.69;5027895;28;20042;-65
2021/04/02 04:30:36;;;;;;;42.72;18.85;;;;;;;8.70;77.46;95393.72;5028181;28;20041;-66
2021/04/02 04:33:02;;;;;;;40.63;18.83;;;;;;;8.76;77.40;95401.34;5028077;28;20046;-65
2021/04/02 04:35:30;;;;;;;31.33;17.77;;;;;;;8.19;78.86;95358.00;5027896;28;20029;-65
2021/04/02 04:37:57;;;;;;;35.38;19.63;;;;;;;8.80;78.77;95438.66;5027971;28;20033;-65
2021/04/02 04:40:24;;;;;;;31.65;18.17;;;;;;;8.61;77.35;95388.28;5045081;28;20026;-65
2021/04/02 04:42:49;;;;;;;41.78;19.65;;;;;;;8.53;77.92;95388.91;5028072;28;20049;-65
2021/04/02 04:45:20;;;;;;;41.55;18.83;;;;;;;8.76;77.99;95441.13;5028111;28;21701;-69
2021/04/02 04:47:45;;;;;;;34.83;18.63;;;;;;;8.67;78.40;95434.88;5026878;28;20087;-66
2021/04/02 04:50:12;;;;;;;29.52;17.50;;;;;;;8.61;77.87;95425.41;5027959;28;20042;-66
2021/04/02 04:52:44;;;;;;;34.50;18.95;;;;;;;8.61;77.78;95425.41;5029920;28;20053;-65
2021/04/02 04:55:10;;;;;;;47.40;19.88;;;;;;;8.43;78.31;95411.00;5028106;28;20034;-65
2021/04/02 04:57:38;;;;;;;36.75;18.95;;;;;;;7.63;78.87;95295.06;5027798;28;20559;-65
2021/04/02 05:00:05;;;;;;;34.30;18.63;;;;;;;8.30;78.17;95379.88;5028261;28;20038;-66
2021/04/02 05:02:33;;;;;;;34.25;18.65;;;;;;;8.63;78.00;95436.50;5027836;28;20038;-66
2021/04/02 05:05:00;;;;;;;36.17;19.02;;;;;;;8.43;77.53;95399.63;5028148;28;20052;-65
2021/04/02 05:07:28;;;;;;;44.65;20.08;;;;;;;8.05;78.10;95346.50;5029815;28;20683;-65
2021/04/02 05:09:56;;;;;;;39.17;20.27;;;;;;;8.10;78.61;95364.22;5027970;28;20060;-66
2021/04/02 05:12:23;;;;;;;41.28;20.88;;;;;;;8.56;79.07;95436.06;5027727;28;20044;-65
2021/04/02 05:14:50;;;;;;;33.35;18.02;;;;;;;8.19;78.25;95379.22;5029907;28;20094;-66
2021/04/02 05:17:16;;;;;;;38.05;19.15;;;;;;;8.45;77.92;95410.75;5029837;28;20038;-65
2021/04/02 05:19:42;;;;;;;42.05;21.95;;;;;;;8.29;78.85;95424.16;5033264;28;20369;-64
2021/04/02 05:22:09;;;;;;;40.97;20.77;;;;;;;8.50;79.05;95453.09;5030934;28;20049;-66
2021/04/02 05:24:35;;;;;;;37.30;20.27;;;;;;;8.16;78.47;95377.13;5031356;28;20705;-65
2021/04/02 05:27:00;;;;;;;38.45;20.42;;;;;;;8.05;78.47;95373.78;5030652;28;20041;-66
2021/04/02 05:29:25;;;;;;;33.97;20.77;;;;;;;8.37;77.72;95416.66;5031172;28;20456;-65
2021/04/02 05:31:51;;;;;;;43.88;24.13;;;;;;;8.34;77.45;95392.28;5030942;28;20021;-65
2021/04/02 05:34:16;;;;;;;50.65;24.27;;;;;;;8.13;78.28;95409.47;5033076;28;20025;-65
2021/04/02 05:36:42;;;;;;;44.80;23.42;;;;;;;8.52;76.93;95424.44;5030722;28;20428;-65
2021/04/02 05:39:07;;;;;;;47.92;24.45;;;;;;;8.74;76.79;95418.59;5031039;28;20037;-66
2021/04/02 05:41:49;;;;;;;49.40;24.55;;;;;;;8.47;76.61;95393.47;5029408;28;20077;-65
2021/04/02 05:44:18;;;;;;;47.20;22.67;;;;;;;9.01;76.51;95463.09;5030899;28;20049;-65
2021/04/02 05:46:45;;;;;;;48.47;24.85;;;;;;;9.29;75.62;95466.69;5032696;28;20388;-66
2021/04/02 05:49:10;;;;;;;48.30;26.20;;;;;;;9.16;75.16;95491.28;5031030;28;20480;-66
2021/04/02 05:51:36;;;;;;;38.95;23.55;;;;;;;9.23;74.69;95462.53;5030527;28;20038;-65
2021/04/02 05:54:03;;;;;;;46.17;24.45;;;;;;;9.20;74.50;95433.91;5030941;28;20068;-65
2021/04/02 05:56:29;;;;;;;41.30;23.58;;;;;;;9.30;73.94;95439.06;5030608;28;20045;-66
2021/04/02 05:58:54;;;;;;;46.03;24.73;;;;;;;9.53;74.04;95456.78;5030196;28;20033;-65
2021/04/02 06:01:20;;;;;;;48.35;23.98;;;;;;;9.29;73.49;95448.09;5032304;28;20100;-66
2021/04/02 06:03:46;;;;;;;42.92;25.05;;;;;;;8.82;73.63;95384.28;5029168;28;20030;-65
2021/04/02 06:06:13;;;;;;;49.88;26.00;;;;;;;9.20;74.22;95460.44;5029174;28;20034;-66
2021/04/02 06:08:46;;;;;;;46.08;26.00;;;;;;;8.73;75.69;95456.81;5028996;28;20128;-65
2021/04/02 06:11:12;;;;;;;51.65;26.48;;;;;;;8.56;76.33;95438.72;5030093;28;20037;-65
2021/04/02 06:13:38;;;;;;;50.63;27.67;;;;;;;8.35;77.16;95440.78;5032269;28;20109;-65
2021/04/02 06:16:04;;;;;;;54.17;27.73;;;;;;;7.84;77.77;95375.06;5030258;28;20481;-65
2021/04/02 06:18:29;;;;;;;53.45;29.73;;;;;;;9.01;75.99;95469.19;5029751;28;20125;-66
2021/04/02 06:20:56;;;;;;;57.10;31.63;;;;;;;9.16;74.63;95452.25;5028355;28;20038;-66
2021/04/02 06:23:23;;;;;;;57.65;31.58;;;;;;;9.31;75.07;95491.06;5029550;28;20050;-64
2021/04/02 06:25:53;;;;;;;59.00;32.20;;;;;;;9.29;74.27;95458.72;5028842;28;20482;-66
2021/04/02 06:28:18;;;;;;;54.25;32.85;;;;;;;9.17;74.20;95493.66;5031491;28;20430;-65
2021/04/02 06:30:44;;;;;;;55.88;32.92;;;;;;;9.14;75.07;95486.25;5029618;28;20041;-66
2021/04/02 06:33:11;;;;;;;58.17;31.08;;;;;;;9.71;72.59;95497.66;5029503;28;20088;-65
2021/04/02 06:35:40;;;;;;;55.35;32.97;;;;;;;8.52;74.34;95419.94;5029600;28;20049;-66
2021/04/02 06:38:05;;;;;;;58.28;34.58;;;;;;;9.03;74.45;95464.38;5028814;28;20074;-65
2021/04/02 06:40:31;;;;;;;55.13;34.70;;;;;;;8.52;75.38;95446.44;5031959;28;20443;-66
2021/04/02 06:43:01;;;;;;;63.88;37.58;;;;;;;9.72;72.83;95501.88;5029412;28;20033;-66
2021/04/02 06:45:28;;;;;;;65.30;37.22;;;;;;;10.25;70.90;95490.97;5028350;28;20049;-65
2021/04/02 06:48:08;;;;;;;63.10;38.15;;;;;;;9.76;71.58;95497.56;5029600;28;20038;-64
2021/04/02 06:50:33;;;;;;;66.97;37.78;;;;;;;9.22;72.25;95456.44;5029566;28;20435;-65
2021/04/02 06:53:01;;;;;;;60.08;36.70;;;;;;;9.84;71.37;95502.25;5029112;28;20040;-66
2021/04/02 06:55:26;;;;;;;66.18;35.80;;;;;;;9.38;71.22;95475.59;5030287;28;20021;-65
2021/04/02 06:57:54;;;;;;;70.93;39.33;;;;;;;9.94;70.94;95473.94;5027740;28;20495;-65
2021/04/02 07:00:22;;;;;;;65.47;38.60;;;;;;;10.76;67.98;95503.34;5029395;28;20385;-65
2021/04/02 07:02:49;;;;;;;58.72;37.97;;;;;;;10.49;67.99;95452.78;5028966;28;20053;-65
2021/04/02 07:05:17;;;;;;;64.43;38.95;;;;;;;10.69;66.05;95415.13;5029060;28;20090;-65
2021/04/02 07:07:45;;;;;;;76.78;43.97;;;;;;;11.36;64.07;95470.41;5030783;28;20087;-66
2021/04/02 07:10:11;;;;;;;64.70;40.75;;;;;;;11.26;63.38;95455.47;5029477;28;20042;-66
2021/04/02 07:12:42;;;;;;;68.05;40.85;;;;;;;11.15;62.92;95414.16;5027528;28;20041;-64
2021/04/02 07:15:09;;;;;;;63.05;39.28;;;;;;;11.73;61.48;95452.53;5029050;28;20400;-65
2021/04/02 07:17:34;;;;;;;57.30;36.53;;;;;;;11.88;61.25;95454.88;5029215;28;20045;-66
2021/04/02 07:20:00;;;;;;;61.90;39.25;;;;;;;12.49;60.65;95494.13;5029084;28;20030;-66
2021/04/02 07:22:27;;;;;;;59.65;36.80;;;;;;;11.45;61.06;95412.69;5029532;28;20439;-67
2021/04/02 07:24:52;;;;;;;64.00;37.38;;;;;;;12.05;60.95;95419.53;5028904;28;20056;-65
2021/04/02 07:27:18;;;;;;;64.55;37.38;;;;;;;12.54;59.23;95445.19;5028627;28;20496;-65
2021/04/02 07:29:44;;;;;;;66.53;40.25;;;;;;;12.98;58.47;95491.47;5028993;28;20045;-66
2021/04/02 07:32:10;;;;;;;59.95;37.78;;;;;;;13.22;58.02;95485.75;5028671;28;20538;-65
2021/04/02 07:34:35;;;;;;;61.35;37.72;;;;;;;12.85;57.18;95405.06;5030924;28;20029;-66
2021/04/02 07:37:01;;;;;;;59.83;38.13;;;;;;;13.27;56.22;95477.59;5028191;28;20090;-65
2021/04/02 07:39:31;;;;;;;63.72;40.42;;;;;;;13.76;56.17;95505.75;5028746;28;20056;-66
2021/04/02 07:41:57;;;;;;;61.55;38.85;;;;;;;12.61;56.53;95370.00;5026752;28;20713;-66
2021/04/02 07:44:23;;;;;;;76.28;44.10;;;;;;;13.53;56.36;95504.34;5028431;28;20099;-65
2021/04/02 07:47:08;;;;;;;77.13;44.88;;;;;;;13.47;56.30;95509.03;5028374;28;20364;-66
2021/04/02 07:49:57;;;;;;;84.55;46.92;;;;;;;13.33;56.99;95526.31;5030591;28;20480;-68
2021/04/02 07:52:39;;;;;;;85.55;48.22;;;;;;;13.04;56.56;95484.09;5028185;28;20081;-66
2021/04/02 07:55:09;;;;;;;76.63;44.33;;;;;;;13.40;56.59;95513.25;5027194;28;20176;-67
2021/04/02 07:57:49;;;;;;;73.57;44.08;;;;;;;13.62;56.05;95509.69;5027696;28;20544;-69
2021/04/02 08:00:16;;;;;;;74.15;43.50;;;;;;;13.60;55.94;95501.97;5028800;28;20183;-68
2021/04/02 08:02:42;;;;;;;82.80;44.65;;;;;;;12.77;57.03;95512.59;5028737;28;20542;-68
2021/04/02 08:05:14;;;;;;;84.80;45.42;;;;;;;13.12;56.59;95475.31;5029110;28;20044;-68
2021/04/02 08:07:41;;;;;;;79.07;44.80;;;;;;;13.42;56.23;95498.50;5030698;28;20029;-69
2021/04/02 08:10:09;;;;;;;80.25;47.28;;;;;;;13.33;55.06;95462.19;5029381;28;20034;-70
2021/04/02 08:12:36;;;;;;;74.78;45.10;;;;;;;12.80;56.43;95447.94;5027318;28;20038;-69
2021/04/02 08:15:26;;;;;;;72.68;41.72;;;;;;;13.35;56.21;95497.38;5029503;28;20037;-70
2021/04/02 08:17:54;;;;;;;71.68;42.40;;;;;;;13.70;56.14;95514.25;5029074;28;20128;-64
2021/04/02 08:20:22;;;;;;;71.75;41.88;;;;;;;13.71;55.09;95479.16;5028985;28;20120;-66
2021/04/02 08:22:49;;;;;;;70.25;41.78;;;;;;;13.69;54.75;95515.34;5029089;28;20022;-68
2021/04/02 08:25:17;;;;;;;73.88;44.40;;;;;;;13.46;55.45;95495.97;5030014;28;20033;-67
2021/04/02 08:27:45;;;;;;;64.00;40.72;;;;;;;12.90;56.55;95513.59;5028080;28;20049;-69
2021/04/02 08:30:13;;;;;;;67.50;41.25;;;;;;;12.14;58.89;95460.34;5029358;28;20080;-67
2021/04/02 08:32:48;;;;;;;62.85;40.47;;;;;;;11.77;60.59;95488.91;5028012;28;20052;-64
2021/04/02 08:35:15;;;;;;;56.03;36.45;;;;;;;12.50;59.40;95494.91;5029113;28;20181;-65
2021/04/02 08:37:57;;;;;;;54.47;36.15;;;;;;;11.55;59.45;95446.28;5031202;28;20025;-62
2021/04/02 08:40:22;;;;;;;52.58;34.78;;;;;;;9.72;60.82;95192.97;5043459;28;20056;-61
2021/04/02 08:42:50;;;;;;;57.55;35.35;;;;;;;12.04;58.87;95479.28;5028866;28;20041;-61
2021/04/02 08:45:19;;;;;;;54.22;35.50;;;;;;;11.83;58.13;95444.34;5028972;28;20049;-61
2021/04/02 08:47:47;;;;;;;55.47;35.05;;;;;;;11.13;63.05;95531.59;5028097;28;20038;-62
2021/04/02 08:50:13;;;;;;;55.70;35.30;;;;;;;10.45;62.92;95433.19;5030323;28;20041;-63
2021/04/02 08:52:38;;;;;;;62.13;38.42;;;;;;;11.07;64.25;95535.47;5034709;28;20030;-68
2021/04/02 08:55:08;;;;;;;61.75;37.22;;;;;;;11.38;62.90;95518.84;5033192;28;20535;-63
2021/04/02 08:57:35;;;;;;;61.08;37.63;;;;;;;12.21;60.31;95520.16;5032473;28;20144;-65
2021/04/02 09:00:04;;;;;;;67.22;33.83;;;;;;;11.17;61.93;95527.28;5032954;28;20140;-67
2021/04/02 09:02:31;;;;;;;56.58;36.10;;;;;;;10.75;62.33;95483.16;5032531;28;20047;-67
2021/04/02 09:04:59;;;;;;;62.17;35.80;;;;;;;10.78;62.59;95490.50;5031641;28;20025;-66
2021/04/02 09:07:25;;;;;;;60.47;36.75;;;;;;;11.82;60.54;95474.72;5034407;28;20113;-65
2021/04/02 09:09:50;;;;;;;63.55;34.17;;;;;;;10.29;61.84;95374.97;5032439;28;20117;-67
2021/04/02 09:12:18;;;;;;;65.80;37.03;;;;;;;12.10;60.25;95524.16;5032239;28;20065;-65
2021/04/02 09:14:50;;;;;;;69.18;40.63;;;;;;;12.64;58.78;95524.16;5032517;28;20026;-68
2021/04/02 09:17:23;;;;;;;70.15;38.47;;;;;;;12.93;56.79;95479.03;5030098;28;20045;-68
2021/04/02 09:19:50;;;;;;;62.92;36.92;;;;;;;13.04;56.96;95452.03;5031347;28;20664;-64
2021/04/02 09:22:16;;;;;;;67.53;38.67;;;;;;;14.04;55.26;95506.22;5033861;28;20034;-66
2021/04/02 09:24:43;;;;;;;62.25;36.38;;;;;;;13.57;53.92;95473.22;5032146;28;20396;-63
2021/04/02 09:27:11;;;;;;;58.00;33.60;;;;;;;12.89;55.07;95483.41;5030866;28;20099;-65
2021/04/02 09:29:37;;;;;;;50.38;32.40;;;;;;;13.09;55.25;95508.78;5032166;28;20128;-65
2021/04/02 09:32:04;;;;;;;62.08;34.25;;;;;;;13.33;55.44;95503.03;5031632;28;20110;-65
2021/04/02 09:34:30;;;;;;;58.63;33.65;;;;;;;12.25;56.15;95413.66;5033514;28;20026;-64
2021/04/02 09:36:56;;;;;;;49.60;32.72;;;;;;;11.52;58.47;95421.06;5031431;28;20038;-68
2021/04/02 09:39:23;;;;;;;57.72;33.00;;;;;;;12.65;57.10;95499.06;5031944;28;20388;-68
2021/04/02 09:41:50;;;;;;;53.80;34.88;;;;;;;12.86;56.60;95494.72;5031743;28;20030;-67
2021/04/02 09:44:18;;;;;;;48.60;31.58;;;;;;;13.27;55.44;95493.59;5032136;28;20638;-67
2021/04/02 09:46:45;;;;;;;45.88;30.77;;;;;;;13.67;55.46;95490.81;5033631;28;20025;-67
2021/04/02 09:49:20;;;;;;;48.30;32.13;;;;;;;13.61;55.45;95497.41;5032431;28;20044;-67
2021/04/02 09:51:48;;;;;;;45.83;31.08;;;;;;;13.99;53.46;95495.69;5030993;28;20046;-66
2021/04/02 09:54:14;;;;;;;44.70;32.35;;;;;;;14.02;53.21;95486.22;5031850;28;20537;-66
2021/04/02 09:56:41;;;;;;;49.33;31.30;;;;;;;14.17;53.07;95495.63;5031239;28;20041;-66
2021/04/02 09:59:07;;;;;;;55.70;33.35;;;;;;;12.73;55.96;95491.06;5031127;28;20125;-67
2021/04/02 10:01:34;;;;;;;46.33;31.73;;;;;;;12.85;56.89;95495.84;5032862;28;20079;-66
2021/04/02 10:03:59;;;;;;;50.95;34.25;;;;;;;14.40;54.25;95486.31;5031289;28;20419;-66
2021/04/02 10:06:25;;;;;;;47.33;33.67;;;;;;;13.74;53.89;95485.78;5031499;28;20064;-65
2021/04/02 10:08:51;;;;;;;52.42;33.58;;;;;;;14.15;53.02;95476.47;5031253;28;20129;-65
2021/04/02 10:11:16;;;;;;;48.58;32.92;;;;;;;14.85;51.23;95458.31;5031210;28;20149;-65
2021/04/02 10:13:42;;;;;;;58.40;34.97;;;;;;;15.60;49.41;95460.00;5033476;28;20509;-66
2021/04/02 10:16:07;;;;;;;54.75;33.67;;;;;;;14.74;50.44;95481.97;5031104;28;20030;-65
2021/04/02 10:18:33;;;;;;;51.38;32.35;;;;;;;15.69;49.37;95476.06;5030740;28;20185;-64
2021/04/02 10:20:58;;;;;;;54.40;33.03;;;;;;;15.27;48.83;95449.22;5030453;28;20037;-65
2021/04/02 10:23:24;;;;;;;51.88;34.63;;;;;;;14.00;52.46;95475.84;5030948;28;20045;-66
2021/04/02 10:25:49;;;;;;;56.95;36.20;;;;;;;14.83;51.12;95472.00;5031009;28;20538;-65
2021/04/02 10:28:15;;;;;;;57.85;33.95;;;;;;;14.24;51.46;95469.19;5032554;28;20464;-66
2021/04/02 10:30:41;;;;;;;65.22;36.70;;;;;;;14.75;51.30;95444.16;5031436;28;20458;-65
2021/04/02 10:33:06;;;;;;;59.30;35.45;;;;;;;15.67;50.31;95456.06;5030813;28;20064;-65
2021/04/02 10:35:33;;;;;;;54.60;34.42;;;;;;;16.25;47.71;95460.41;5029578;28;20076;-66
2021/04/02 10:37:58;;;;;;;55.15;32.38;;;;;;;15.81;46.96;95443.91;5030476;28;20038;-65
2021/04/02 10:40:24;;;;;;;51.78;33.95;;;;;;;16.54;45.62;95451.41;5032790;28;20021;-65
2021/04/02 10:42:49;;;;;;;47.45;32.85;;;;;;;16.21;46.63;95450.66;5030490;28;20037;-66
2021/04/02 10:45:15;;;;;;;51.55;31.38;;;;;;;15.50;47.87;95452.34;5030484;28;20041;-66
2021/04/02 10:47:40;;;;;;;46.20;31.60;;;;;;;13.88;51.80;95454.31;5030306;28;20541;-65
2021/04/02 10:50:06;;;;;;;43.53;30.90;;;;;;;14.24;51.13;95450.47;5030094;28;20124;-66
2021/04/02 10:52:32;;;;;;;50.63;33.17;;;;;;;14.71;51.00;95463.88;5032130;28;20053;-65
2021/04/02 10:54:57;;;;;;;53.70;33.50;;;;;;;15.23;48.92;95426.06;5030564;28;20040;-65
2021/04/02 10:57:22;;;;;;;49.67;33.42;;;;;;;14.03;52.49;95461.84;5030062;28;20076;-66
2021/04/02 10:59:48;;;;;;;49.35;33.05;;;;;;;14.05;52.92;95454.28;5030631;28;20022;-66
2021/04/02 11:02:13;;;;;;;46.70;30.98;;;;;;;14.41;51.16;95447.72;5028822;28;20029;-66
2021/04/02 11:04:40;;;;;;;41.42;31.58;;;;;;;13.96;52.77;95439.34;5032343;28;20112;-65
2021/04/02 11:07:06;;;;;;;47.92;30.65;;;;;;;14.55;50.95;95424.25;5030181;28;20037;-66
2021/04/02 11:09:32;;;;;;;47.17;29.95;;;;;;;15.25;49.28;95435.38;5030534;28;20040;-66
2021/04/02 11:11:57;;;;;;;41.38;30.00;;;;;;;15.55;49.00;95417.31;5029653;28;20033;-66
2021/04/02 11:14:23;;;;;;;44.80;30.38;;;;;;;14.25;50.55;95425.28;5029273;28;20060;-67
2021/04/02 11:16:48;;;;;;;44.65;28.60;;;;;;;13.43;52.60;95438.63;5029857;28;20410;-67
2021/04/02 11:19:13;;;;;;;37.60;26.55;;;;;;;13.83;51.37;95433.09;5031970;28;20084;-66
2021/04/02 11:21:39;;;;;;;37.63;27.73;;;;;;;15.06;48.86;95435.81;5029262;28;20042;-65
2021/04/02 11:24:05;;;;;;;39.97;27.33;;;;;;;14.86;49.31;95433.88;5030023;28;20052;-66
2021/04/02 11:26:30;;;;;;;33.65;24.30;;;;;;;12.61;55.06;95444.72;5029898;28;20427;-66